Time;durP1;ratioP1;P1;durP2;ratioP2;P2;SDS_P1;SDS_P2;PMS_P1;PMS_P2;Temp;Humidity;BMP_temperature;BMP_pressure;BME280_temperature;BME280_humidity;BME280_pressure;Samples;Min_cycle;Max_cycle;Signal;HPM_P1;HPM_P2
2021/12/25 00:02:34;;;;;;;1.92;1.55;;;;;;;-145.06;0.00;60892.56;4819215;28;20053;-86
2021/12/25 00:05:14;;;;;;;2.50;1.73;;;;;;;10.68;0.00;60892.56;4812619;28;20034;-85
2021/12/25 00:07:53;;;;;;;2.05;1.55;;;;;;;-145.06;0.00;60892.56;4816961;28;20054;-86
2021/12/25 00:10:32;;;;;;;3.33;2.00;;;;;;;-145.06;0.00;60892.56;4822511;28;20080;-85
2021/12/25 00:13:11;;;;;;;3.38;2.20;;;;;;;-145.06;0.00;60892.56;4819160;28;20038;-86
2021/12/25 00:15:51;;;;;;;2.63;1.83;;;;;;;-145.06;0.00;60892.56;4822374;28;20432;-86
2021/12/25 00:18:31;;;;;;;2.75;2.05;;;;;;;9.65;0.00;60892.56;4813639;28;20034;-85
2021/12/25 00:21:11;;;;;;;;;;;;;;;-145.06;0.00;60892.56;4843550;28;20050;-85
2021/12/25 00:23:51;;;;;;;2.08;1.50;;;;;;;-145.06;0.00;60892.56;4819989;28;19917;-87
2021/12/25 00:30:16;;;;;;;2.35;1.70;;;;;;;-145.06;0.00;60892.56;4787018;28;20046;-86
2021/12/25 00:33:00;;;;;;;2.30;1.83;;;;;;;-145.06;0.00;60892.56;4793106;28;20437;-85
2021/12/25 00:35:39;;;;;;;2.25;1.60;;;;;;;-145.06;0.00;60892.56;4816136;28;20746;-86
2021/12/25 00:38:18;;;;;;;4.30;2.10;;;;;;;-145.06;0.00;60892.56;4817480;28;20038;-87
2021/12/25 00:40:58;;;;;;;2.58;1.88;;;;;;;-145.06;0.00;60892.56;4819629;28;20401;-86
2021/12/25 00:43:37;;;;;;;3.53;2.28;;;;;;;-145.06;0.00;60892.56;4811439;28;20030;-86
2021/12/25 00:46:16;;;;;;;4.07;2.40;;;;;;;-145.06;0.00;60892.56;4817889;28;20038;-87
2021/12/25 00:48:55;;;;;;;4.85;2.35;;;;;;;-145.06;0.00;60892.56;4817753;28;20046;-86
2021/12/25 00:51:34;;;;;;;3.15;2.33;;;;;;;-145.06;0.00;60892.56;4813156;28;20035;-85
2021/12/25 00:54:15;;;;;;;3.33;2.20;;;;;;;-145.06;0.00;60892.56;4813618;28;20038;-85
2021/12/25 00:56:54;;;;;;;3.58;2.40;;;;;;;-145.06;0.00;60892.56;4811342;28;20042;-85
2021/12/25 00:59:33;;;;;;;3.08;2.35;;;;;;;-145.06;0.00;60892.56;4815558;28;20109;-87
2021/12/25 01:02:12;;;;;;;3.67;2.40;;;;;;;-145.06;0.00;60892.56;4840138;28;20034;-86
2021/12/25 01:04:51;;;;;;;3.38;2.20;;;;;;;-145.06;0.00;60892.56;4832364;28;20026;-87
2021/12/25 01:07:30;;;;;;;5.20;2.37;;;;;;;-145.06;0.00;60892.56;4816748;28;20029;-87
2021/12/25 01:10:15;;;;;;;5.18;3.13;;;;;;;-145.06;0.00;60892.56;4823987;28;20030;-85
2021/12/25 01:16:01;;;;;;;3.60;2.90;;;;;;;-145.06;0.00;60892.56;4812019;28;20031;-87
2021/12/25 01:27:51;;;;;;;3.53;2.42;;;;;;;-145.06;0.00;60892.56;4820625;28;20062;-86
2021/12/25 01:33:21;;;;;;;3.13;2.50;;;;;;;-145.06;0.00;60892.56;4816560;28;20030;-86
2021/12/25 01:48:07;;;;;;;2.30;1.98;;;;;;;9.08;0.00;60892.56;4814345;28;20026;-86
2021/12/25 01:50:46;;;;;;;2.73;2.30;;;;;;;-145.06;0.00;60892.56;4819296;28;20026;-86
2021/12/25 01:53:25;;;;;;;2.25;1.73;;;;;;;-145.06;0.00;60892.56;4814427;28;20038;-85
2021/12/25 01:56:05;;;;;;;3.05;2.10;;;;;;;-145.06;0.00;60892.56;4817943;28;20515;-86
2021/12/25 01:58:44;;;;;;;2.50;2.05;;;;;;;8.94;0.00;60892.56;4814391;28;20046;-86
2021/12/25 02:01:23;;;;;;;1.90;1.70;;;;;;;-145.06;0.00;60892.56;4810567;28;20031;-86
2021/12/25 02:04:03;;;;;;;2.30;1.90;;;;;;;-145.06;0.00;60892.56;4811277;28;20038;-87
2021/12/25 02:06:43;;;;;;;2.63;2.22;;;;;;;-145.06;0.00;60892.56;4819305;28;20038;-86
2021/12/25 02:09:22;;;;;;;3.03;2.35;;;;;;;9.06;0.00;60892.56;4807817;28;20105;-86
2021/12/25 02:12:02;;;;;;;2.78;2.47;;;;;;;-145.06;0.00;60892.56;4818857;28;20051;-86
2021/12/25 02:14:44;;;;;;;3.88;2.42;;;;;;;8.90;0.00;60892.56;4816712;28;20377;-86
2021/12/25 02:17:33;;;;;;;2.60;1.95;;;;;;;-145.06;0.00;60892.56;4820905;28;20042;-87
2021/12/25 02:20:17;;;;;;;2.70;2.20;;;;;;;-145.06;0.00;60892.56;4819209;28;20038;-85
2021/12/25 02:23:02;;;;;;;2.80;2.22;;;;;;;-145.06;0.00;60892.56;4817105;28;20050;-85
2021/12/25 02:25:41;;;;;;;3.60;2.58;;;;;;;-145.06;0.00;60892.56;4817581;28;20033;-86
2021/12/25 02:28:22;;;;;;;3.35;2.50;;;;;;;8.74;0.00;60892.56;4816063;28;20046;-86
2021/12/25 02:31:05;;;;;;;3.75;2.78;;;;;;;-145.06;0.00;60892.56;4812403;28;20038;-85
2021/12/25 02:33:45;;;;;;;2.90;2.28;;;;;;;-145.06;0.00;60892.56;4812274;28;20763;-86
2021/12/25 02:36:24;;;;;;;3.47;2.35;;;;;;;-145.06;0.00;60892.56;4820418;28;20448;-86
2021/12/25 02:39:03;;;;;;;3.20;2.23;;;;;;;-145.06;0.00;60892.56;4812943;28;20116;-85
2021/12/25 02:41:42;;;;;;;3.60;2.67;;;;;;;-145.06;0.00;60892.56;4814014;28;20620;-86
2021/12/25 02:44:21;;;;;;;;;;;;;;;-145.06;0.00;60892.56;4811581;28;20476;-86
2021/12/25 02:47:09;;;;;;;2.30;1.73;;;;;;;-145.06;0.00;60892.56;4822373;28;19914;-86
2021/12/25 02:49:52;;;;;;;2.58;2.08;;;;;;;-145.06;0.00;60892.56;4817108;28;20030;-85
2021/12/25 02:52:31;;;;;;;2.85;2.17;;;;;;;-145.06;0.00;60892.56;4812020;28;20042;-87
2021/12/25 02:55:10;;;;;;;3.23;2.50;;;;;;;-145.06;0.00;60892.56;4810586;28;20389;-85
2021/12/25 02:57:51;;;;;;;3.00;2.35;;;;;;;-145.06;0.00;60892.56;4813781;28;20038;-86
2021/12/25 03:00:35;;;;;;;2.80;2.13;;;;;;;21.08;0.00;60892.56;4811951;28;20034;-85
2021/12/25 03:03:14;;;;;;;2.42;2.15;;;;;;;-145.06;0.00;60892.56;4816889;28;20034;-85
2021/12/25 03:05:53;;;;;;;2.47;1.88;;;;;;;-145.06;0.00;60892.56;4816070;28;20041;-85
2021/12/25 03:08:32;;;;;;;2.30;2.00;;;;;;;8.39;0.00;60892.56;4819710;28;20038;-86
2021/12/25 03:11:13;;;;;;;2.43;2.07;;;;;;;-145.06;0.00;60892.56;4818330;28;20037;-87
2021/12/25 03:14:11;;;;;;;2.33;2.10;;;;;;;-145.06;0.00;60892.56;4812205;28;20041;-86
2021/12/25 03:16:50;;;;;;;2.83;2.00;;;;;;;-145.06;0.00;60892.56;4812315;28;20069;-85
2021/12/25 03:19:33;;;;;;;1.80;1.63;;;;;;;-145.06;0.00;60892.56;4817272;28;20038;-85
2021/12/25 03:22:11;;;;;;;2.13;1.88;;;;;;;-145.06;0.00;60892.56;4819973;28;20029;-85
2021/12/25 03:24:51;;;;;;;2.03;1.83;;;;;;;-145.06;0.00;60892.56;4812975;28;20377;-86
2021/12/25 03:27:29;;;;;;;2.33;2.03;;;;;;;-145.06;0.00;60892.56;4810848;28;20468;-85
2021/12/25 03:30:14;;;;;;;1.58;1.45;;;;;;;-145.06;0.00;60892.56;4820010;28;20031;-85
2021/12/25 03:32:55;;;;;;;2.13;1.70;;;;;;;-145.06;0.00;60892.56;4809105;28;20117;-84
2021/12/25 03:35:34;;;;;;;2.17;1.70;;;;;;;-145.06;0.00;60892.56;4815606;28;20034;-86
2021/12/25 03:38:15;;;;;;;1.67;1.58;;;;;;;-145.06;0.00;60892.56;4813322;28;20030;-85
2021/12/25 03:40:56;;;;;;;1.85;1.67;;;;;;;-145.06;0.00;60892.56;4811387;28;20388;-84
2021/12/25 03:43:38;;;;;;;1.98;1.73;;;;;;;-145.06;0.00;60892.56;4809786;28;20376;-84
2021/12/25 03:46:18;;;;;;;2.17;1.55;;;;;;;-145.06;0.00;60892.56;4819843;28;20058;-85
2021/12/25 03:49:04;;;;;;;1.63;1.50;;;;;;;-145.06;0.00;60892.56;4814961;28;20038;-86
2021/12/25 03:57:50;;;;;;;1.50;1.40;;;;;;;-145.06;0.00;60892.56;4810892;28;20781;-85
2021/12/25 04:00:31;;;;;;;1.95;1.42;;;;;;;-145.06;0.00;60892.56;4815129;28;20038;-85
2021/12/25 04:03:18;;;;;;;1.75;1.50;;;;;;;-145.06;0.00;60892.56;4813980;28;20038;-85
2021/12/25 04:06:06;;;;;;;1.73;1.60;;;;;;;-145.06;0.00;60892.56;4812835;28;20030;-85
2021/12/25 04:08:47;;;;;;;1.92;1.40;;;;;;;-145.06;0.00;60892.56;4814108;28;20387;-85
2021/12/25 04:11:32;;;;;;;;;;;;;;;-145.06;0.00;60892.56;4814651;28;20030;-85
2021/12/25 04:14:11;;;;;;;1.38;1.27;;;;;;;-145.06;0.00;60892.56;4813312;28;20000;-85
2021/12/25 04:16:50;;;;;;;1.33;1.20;;;;;;;-145.06;0.00;60892.56;4816651;28;20137;-85
2021/12/25 04:19:29;;;;;;;1.48;1.20;;;;;;;-145.06;0.00;60892.56;4817403;28;20026;-85
2021/12/25 04:22:15;;;;;;;2.10;1.35;;;;;;;-145.06;0.00;60892.56;4824425;28;20098;-85
2021/12/25 04:24:54;;;;;;;1.50;1.40;;;;;;;-145.06;0.00;60892.56;4837719;28;20030;-85
2021/12/25 04:27:34;;;;;;;1.60;1.50;;;;;;;-145.06;0.00;60892.56;4826917;28;20468;-85
2021/12/25 04:30:41;;;;;;;2.10;1.63;;;;;;;7.79;0.00;60892.56;4815516;28;20062;-86
2021/12/25 05:04:59;;;;;;;1.95;1.60;;;;;;;-145.06;0.00;60892.56;4819267;28;20030;-85
2021/12/25 05:07:38;;;;;;;1.67;1.55;;;;;;;-145.06;0.00;60892.56;4825106;28;20488;-85
2021/12/25 05:10:17;;;;;;;1.33;1.23;;;;;;;-145.06;0.00;60892.56;4819719;28;20109;-85
2021/12/25 05:12:56;;;;;;;1.90;1.73;;;;;;;-145.06;0.00;60892.56;4816332;28;20038;-85
2021/12/25 05:15:35;;;;;;;1.77;1.60;;;;;;;7.11;0.00;60892.56;4819443;28;20034;-85
2021/12/25 05:18:14;;;;;;;1.40;1.30;;;;;;;-145.06;0.00;60892.56;4819499;28;20031;-84
2021/12/25 05:20:53;;;;;;;1.60;1.50;;;;;;;-145.06;0.00;60892.56;4813235;28;20038;-85
2021/12/25 05:23:32;;;;;;;2.33;2.00;;;;;;;-145.06;0.00;60892.56;4821063;28;20034;-85
2021/12/25 05:26:11;;;;;;;2.07;1.77;;;;;;;-145.06;0.00;60892.56;4824174;28;20026;-84
2021/12/25 05:28:58;;;;;;;2.25;2.03;;;;;;;-145.06;0.00;60892.56;4817844;28;20609;-85
2021/12/25 05:31:37;;;;;;;2.38;2.00;;;;;;;-145.06;0.00;60892.56;4811859;28;20030;-86
2021/12/25 05:34:16;;;;;;;3.13;2.50;;;;;;;-145.06;0.00;60892.56;4818512;28;20374;-84
2021/12/25 05:36:56;;;;;;;3.45;2.67;;;;;;;-145.06;0.00;60892.56;4815909;28;20042;-85
2021/12/25 05:39:35;;;;;;;2.23;2.03;;;;;;;6.79;0.00;60892.56;4815715;28;20043;-85
2021/12/25 05:42:13;;;;;;;2.95;2.47;;;;;;;-145.06;0.00;60892.56;4820793;28;20030;-85
2021/12/25 05:44:52;;;;;;;2.33;2.13;;;;;;;-145.06;0.00;60892.56;4814602;28;20038;-84
2021/12/25 05:47:31;;;;;;;2.43;2.10;;;;;;;-145.06;0.00;60892.56;4820697;28;20571;-85
2021/12/25 05:50:10;;;;;;;2.42;2.05;;;;;;;-145.06;0.00;60892.56;4815952;28;20034;-83
2021/12/25 05:52:49;;;;;;;2.42;2.08;;;;;;;-145.06;0.00;60892.56;4818457;28;20480;-85
2021/12/25 05:55:29;;;;;;;2.40;1.97;;;;;;;6.58;0.00;60892.56;4820804;28;20081;-85
2021/12/25 05:58:09;;;;;;;2.10;1.85;;;;;;;6.54;0.00;60892.56;4815306;28;20293;-85
2021/12/25 06:00:48;;;;;;;;;;;;;;;6.79;0.00;60892.56;4814075;28;20038;-85
2021/12/25 06:03:27;;;;;;;2.80;2.37;;;;;;;187.52;0.00;60892.56;4818931;28;19913;-84
2021/12/25 06:06:07;;;;;;;2.50;2.10;;;;;;;-145.06;0.00;60892.56;4812857;28;20034;-85
2021/12/25 06:08:46;;;;;;;2.28;2.00;;;;;;;-145.06;0.00;60892.56;4815936;28;20026;-85
2021/12/25 06:11:25;;;;;;;3.03;2.20;;;;;;;-145.06;0.00;60892.56;4815159;28;20026;-84
2021/12/25 06:14:17;;;;;;;3.10;2.50;;;;;;;-145.06;0.00;60892.56;4818524;28;20440;-85
2021/12/25 06:16:56;;;;;;;2.92;2.58;;;;;;;-145.06;0.00;60892.56;4815830;28;21261;-84
2021/12/25 06:19:35;;;;;;;2.77;2.47;;;;;;;-145.06;0.00;60892.56;4815671;28;20121;-84
2021/12/25 06:22:14;;;;;;;3.13;2.65;;;;;;;-145.06;0.00;60892.56;4818089;28;20851;-84
2021/12/25 06:24:53;;;;;;;2.63;2.20;;;;;;;-145.06;0.00;60892.56;4809012;28;20046;-84
2021/12/25 06:27:32;;;;;;;3.50;2.83;;;;;;;-145.06;0.00;60892.56;4817093;28;20042;-85
2021/12/25 06:30:13;;;;;;;2.65;2.35;;;;;;;-145.06;0.00;60892.56;4817775;28;20269;-84
2021/12/25 06:32:52;;;;;;;2.88;2.45;;;;;;;-145.06;0.00;60892.56;4822233;28;20034;-85
2021/12/25 06:35:32;;;;;;;2.80;2.28;;;;;;;-145.06;0.00;60892.56;4818140;28;20026;-86
2021/12/25 06:38:11;;;;;;;2.72;2.22;;;;;;;-145.06;0.00;60892.56;4813975;28;20046;-84
2021/12/25 06:40:50;;;;;;;3.23;2.80;;;;;;;-145.06;0.00;60892.56;4808041;28;20114;-85
2021/12/25 06:43:28;;;;;;;2.65;2.42;;;;;;;-145.06;0.00;60892.56;4814640;28;20034;-83
2021/12/25 06:46:08;;;;;;;3.33;2.45;;;;;;;-145.06;0.00;60892.56;4812316;28;20046;-84
2021/12/25 06:48:47;;;;;;;3.03;2.53;;;;;;;-145.06;0.00;60892.56;4811879;28;20039;-84
2021/12/25 06:51:26;;;;;;;2.97;2.42;;;;;;;-145.06;0.00;60892.56;4818118;28;20038;-84
2021/12/25 06:54:05;;;;;;;2.55;2.22;;;;;;;-145.06;0.00;60892.56;4808306;28;20034;-85
2021/12/25 06:56:46;;;;;;;2.73;2.47;;;;;;;-145.06;0.00;60892.56;4815755;28;20042;-84
2021/12/25 06:59:25;;;;;;;2.70;2.40;;;;;;;-145.06;0.00;60892.56;4819016;28;20038;-84
2021/12/25 07:02:04;;;;;;;4.03;2.70;;;;;;;-145.06;0.00;60892.56;4812914;28;20504;-85
2021/12/25 07:04:42;;;;;;;2.75;2.42;;;;;;;-145.06;0.00;60892.56;4846508;28;20034;-84
2021/12/25 07:07:23;;;;;;;2.70;2.45;;;;;;;-145.06;0.00;60892.56;4818312;28;20026;-85
2021/12/25 07:10:05;;;;;;;2.63;2.42;;;;;;;-145.06;0.00;60892.56;4819794;28;20027;-85
2021/12/25 07:12:47;;;;;;;2.90;2.58;;;;;;;6.79;0.00;60892.56;4819314;28;20034;-85
2021/12/25 07:15:26;;;;;;;3.50;3.05;;;;;;;-145.06;0.00;60892.56;4814045;28;20113;-85
2021/12/25 07:18:06;;;;;;;3.73;3.10;;;;;;;187.52;0.00;60892.56;4815857;28;20370;-86
2021/12/25 07:20:48;;;;;;;3.50;3.03;;;;;;;5.44;0.00;60892.56;4818889;28;20034;-84
2021/12/25 07:23:27;;;;;;;2.97;2.67;;;;;;;-145.06;0.00;60892.56;4813775;28;20031;-86
2021/12/25 07:26:06;;;;;;;3.00;2.60;;;;;;;-145.06;0.00;60892.56;4810842;28;20034;-85
2021/12/25 07:28:46;;;;;;;3.42;2.65;;;;;;;-145.06;0.00;60892.56;4818164;28;20293;-85
2021/12/25 07:31:24;;;;;;;3.05;2.67;;;;;;;-145.06;0.00;60892.56;4809575;28;20042;-86
2021/12/25 07:34:03;;;;;;;2.80;2.50;;;;;;;-145.06;0.00;60892.56;4816424;28;20076;-85
2021/12/25 07:36:42;;;;;;;2.80;2.43;;;;;;;5.30;0.00;60892.56;4834705;28;20046;-86
2021/12/25 07:39:21;;;;;;;3.43;2.97;;;;;;;-145.06;0.00;60892.56;4817233;28;20274;-86
2021/12/25 07:42:00;;;;;;;3.08;2.75;;;;;;;-145.06;0.00;60892.56;4827103;28;20022;-85
2021/12/25 07:44:39;;;;;;;3.50;2.70;;;;;;;-145.06;0.00;60892.56;4822323;28;20042;-85
2021/12/25 07:47:21;;;;;;;2.77;2.53;;;;;;;-145.06;0.00;60892.56;4817971;28;20034;-86
2021/12/25 07:50:03;;;;;;;3.33;2.85;;;;;;;-145.06;0.00;60892.56;4815603;28;20022;-85
2021/12/25 07:52:42;;;;;;;2.75;2.42;;;;;;;-145.06;0.00;60892.56;4818958;28;20372;-86
2021/12/25 07:55:22;;;;;;;3.00;2.65;;;;;;;-145.06;0.00;60892.56;4812083;28;21465;-85
2021/12/25 07:58:02;;;;;;;;;;;;;;;-145.06;0.00;60892.56;4815397;28;20641;-85
2021/12/25 08:00:41;;;;;;;2.38;2.05;;;;;;;-145.06;0.00;60892.56;4821391;28;20268;-86
2021/12/25 08:03:20;;;;;;;2.30;2.00;;;;;;;-145.06;0.00;60892.56;4813574;28;20046;-85
2021/12/25 08:05:59;;;;;;;2.72;2.35;;;;;;;-145.06;0.00;60892.56;4817994;28;20045;-84
2021/12/25 08:08:38;;;;;;;2.70;2.20;;;;;;;-145.06;0.00;60892.56;4816328;28;20046;-85
2021/12/25 08:11:17;;;;;;;2.67;2.35;;;;;;;-145.06;0.00;60892.56;4827265;28;20104;-86
2021/12/25 08:13:57;;;;;;;2.00;1.80;;;;;;;-145.06;0.00;60892.56;4824699;28;20034;-86
2021/12/25 08:16:38;;;;;;;2.13;1.75;;;;;;;-145.06;0.00;60892.56;4816406;28;20081;-86
2021/12/25 08:19:17;;;;;;;1.95;1.63;;;;;;;-145.06;0.00;60892.56;4813441;28;20058;-85
2021/12/25 08:21:56;;;;;;;2.00;1.80;;;;;;;-145.06;0.00;60892.56;4815770;28;20034;-85
2021/12/25 08:24:35;;;;;;;2.17;1.95;;;;;;;-145.06;0.00;60892.56;4813262;28;20038;-85
2021/12/25 08:27:14;;;;;;;2.60;1.77;;;;;;;-145.06;0.00;60892.56;4819751;28;20034;-85
2021/12/25 08:29:53;;;;;;;2.83;1.93;;;;;;;-145.06;0.00;60892.56;4817862;28;20370;-85
2021/12/25 08:32:33;;;;;;;1.83;1.70;;;;;;;-145.06;0.00;60892.56;4832998;28;20266;-85
2021/12/25 08:35:14;;;;;;;2.42;1.83;;;;;;;-145.06;0.00;60892.56;4822581;28;20042;-85
2021/12/25 08:37:53;;;;;;;3.80;2.35;;;;;;;-145.06;0.00;60892.56;4818096;28;20042;-85
2021/12/25 08:40:32;;;;;;;2.13;1.90;;;;;;;-145.06;0.00;60892.56;4819841;28;20441;-85
2021/12/25 08:43:14;;;;;;;2.60;1.87;;;;;;;-145.06;0.00;60892.56;4818907;28;20042;-85
2021/12/25 08:46:11;;;;;;;2.38;1.92;;;;;;;-145.06;0.00;60892.56;4817583;28;20022;-85
2021/12/25 08:48:52;;;;;;;2.15;1.95;;;;;;;-145.06;0.00;60892.56;4814608;28;20066;-85
2021/12/25 08:51:30;;;;;;;2.53;2.25;;;;;;;-145.06;0.00;60892.56;4806500;28;20054;-86
2021/12/25 08:54:11;;;;;;;2.00;1.80;;;;;;;-145.06;0.00;60892.56;4816840;28;20042;-85
2021/12/25 08:56:51;;;;;;;2.60;2.10;;;;;;;-145.06;0.00;60892.56;4817491;28;20030;-86
2021/12/25 08:59:31;;;;;;;2.88;2.33;;;;;;;-145.06;0.00;60892.56;4816668;28;20027;-85
2021/12/25 09:02:14;;;;;;;2.28;1.95;;;;;;;-145.06;0.00;60892.56;4807656;28;20030;-86
2021/12/25 09:04:53;;;;;;;2.17;1.92;;;;;;;-145.06;0.00;60892.56;4816609;28;20034;-86
2021/12/25 09:07:32;;;;;;;2.60;2.20;;;;;;;-145.06;0.00;60892.56;4811572;28;20058;-86
2021/12/25 09:10:11;;;;;;;2.45;2.10;;;;;;;-145.06;0.00;60892.56;4814777;28;20034;-85
2021/12/25 09:12:50;;;;;;;2.35;2.00;;;;;;;-145.06;0.00;60892.56;4817378;28;20624;-85
2021/12/25 09:15:30;;;;;;;1.83;1.70;;;;;;;-145.06;0.00;60892.56;4814767;28;20035;-85
2021/12/25 09:18:08;;;;;;;1.83;1.63;;;;;;;-145.06;0.00;60892.56;4817510;28;20113;-85
2021/12/25 09:20:47;;;;;;;1.80;1.60;;;;;;;-145.06;0.00;60892.56;4807734;28;20282;-86
2021/12/25 09:23:26;;;;;;;2.25;2.05;;;;;;;-145.06;0.00;60892.56;4812464;28;20121;-86
2021/12/25 09:26:05;;;;;;;1.90;1.67;;;;;;;-145.06;0.00;60892.56;4824360;28;20109;-86
2021/12/25 09:28:45;;;;;;;1.90;1.70;;;;;;;-145.06;0.00;60892.56;4811903;28;20464;-86
2021/12/25 09:31:25;;;;;;;1.55;1.45;;;;;;;-145.06;0.00;60892.56;4821806;28;20025;-85
2021/12/25 09:34:04;;;;;;;1.80;1.55;;;;;;;-145.06;0.00;60892.56;4822641;28;20492;-85
2021/12/25 09:36:43;;;;;;;2.10;1.70;;;;;;;-145.06;0.00;60892.56;4844612;28;20038;-85
2021/12/25 09:39:22;;;;;;;2.20;1.87;;;;;;;-145.06;0.00;60892.56;4809961;28;20822;-85
2021/12/25 09:42:01;;;;;;;1.87;1.57;;;;;;;-145.06;0.00;60892.56;4820479;28;20038;-86
2021/12/25 09:44:39;;;;;;;2.33;1.80;;;;;;;-145.06;0.00;60892.56;4817607;28;20381;-86
2021/12/25 09:47:19;;;;;;;1.98;1.67;;;;;;;-145.06;0.00;60892.56;4823413;28;20755;-85
2021/12/25 09:49:57;;;;;;;2.15;1.88;;;;;;;-145.06;0.00;60892.56;4824418;28;20034;-85
2021/12/25 09:52:37;;;;;;;2.53;1.65;;;;;;;-145.06;0.00;60892.56;4819273;28;20113;-86
2021/12/25 09:55:17;;;;;;;2.58;1.63;;;;;;;-145.06;0.00;60892.56;4818902;28;20125;-84
2021/12/25 09:57:56;;;;;;;2.15;1.77;;;;;;;-145.06;0.00;60892.56;4818730;28;20041;-86
2021/12/25 10:00:41;;;;;;;3.60;1.83;;;;;;;-145.06;0.00;60892.56;4818469;28;20037;-85
2021/12/25 10:03:21;;;;;;;2.33;1.60;;;;;;;-145.06;0.00;60892.56;4814751;28;20034;-86
2021/12/25 10:05:59;;;;;;;1.98;1.80;;;;;;;-145.06;0.00;60892.56;4814385;28;20043;-85
2021/12/25 10:08:39;;;;;;;2.30;1.77;;;;;;;-145.06;0.00;60892.56;4817406;28;20722;-85
2021/12/25 10:11:18;;;;;;;2.00;1.80;;;;;;;-145.06;0.00;60892.56;4813950;28;20030;-85
2021/12/25 10:13:57;;;;;;;1.60;1.50;;;;;;;-145.06;0.00;60892.56;4819195;28;20042;-86
2021/12/25 10:16:36;;;;;;;1.85;1.65;;;;;;;-145.06;0.00;60892.56;4840422;28;20038;-85
2021/12/25 10:19:18;;;;;;;1.67;1.58;;;;;;;-145.06;0.00;60892.56;4820249;28;20543;-86
2021/12/25 10:22:06;;;;;;;2.08;1.63;;;;;;;-145.06;0.00;60892.56;4818678;28;20030;-85
2021/12/25 10:24:50;;;;;;;1.73;1.42;;;;;;;-145.06;0.00;60892.56;4809640;28;20026;-86
2021/12/25 10:27:29;;;;;;;1.60;1.50;;;;;;;-145.06;0.00;60892.56;4818514;28;20026;-86
2021/12/25 10:30:09;;;;;;;1.60;1.50;;;;;;;-145.06;0.00;60892.56;4820447;28;20031;-86
2021/12/25 10:32:48;;;;;;;1.80;1.30;;;;;;;-145.06;0.00;60892.56;4817194;28;20696;-85
2021/12/25 10:35:30;;;;;;;2.33;1.42;;;;;;;-145.06;0.00;60892.56;4814698;28;20033;-85
2021/12/25 10:38:11;;;;;;;1.30;1.20;;;;;;;-145.06;0.00;60892.56;4820200;28;20061;-85
2021/12/25 10:41:08;;;;;;;2.00;1.52;;;;;;;-145.06;0.00;60892.56;4823487;28;20065;-86
2021/12/25 10:43:52;;;;;;;1.70;1.60;;;;;;;-145.06;0.00;60892.56;4810238;28;20027;-86
2021/12/25 10:46:50;;;;;;;2.03;1.83;;;;;;;-145.06;0.00;60892.56;4809931;28;20038;-86
2021/12/25 10:49:35;;;;;;;1.52;1.42;;;;;;;-145.06;0.00;60892.56;4812012;28;20377;-84
2021/12/25 10:52:29;;;;;;;1.45;1.30;;;;;;;-145.06;0.00;60892.56;4818131;28;20058;-85
2021/12/25 10:55:21;;;;;;;1.38;1.27;;;;;;;-145.06;0.00;60892.56;4817195;28;20595;-85
2021/12/25 10:58:00;;;;;;;1.50;1.40;;;;;;;-145.06;0.00;60892.56;4831250;28;20061;-85
2021/12/25 11:00:39;;;;;;;1.90;1.50;;;;;;;-145.06;0.00;60892.56;4820975;28;20042;-85
2021/12/25 11:03:30;;;;;;;1.93;1.40;;;;;;;-145.06;0.00;60892.56;4828042;28;20034;-85
2021/12/25 11:06:16;;;;;;;2.40;1.40;;;;;;;-145.06;0.00;60892.56;4819685;28;20270;-86
2021/12/25 11:08:58;;;;;;;1.15;1.05;;;;;;;-145.06;0.00;60892.56;4821502;28;20380;-85
2021/12/25 11:11:37;;;;;;;1.73;1.30;;;;;;;-145.06;0.00;60892.56;4824834;28;20112;-85
2021/12/25 11:14:21;;;;;;;1.67;1.20;;;;;;;-145.06;0.00;60892.56;4818943;28;20030;-86
2021/12/25 11:17:26;;;;;;;1.67;1.20;;;;;;;-145.06;0.00;60892.56;4815348;28;20034;-85
2021/12/25 11:20:07;;;;;;;1.45;1.33;;;;;;;-145.06;0.00;60892.56;4818902;28;20030;-86
2021/12/25 11:22:53;;;;;;;1.20;1.10;;;;;;;-145.06;0.00;60892.56;4823294;28;20034;-85
2021/12/25 11:25:33;;;;;;;1.60;1.48;;;;;;;-145.06;0.00;60892.56;4823814;28;20382;-86
2021/12/25 11:28:15;;;;;;;1.75;1.42;;;;;;;-145.06;0.00;60892.56;4818003;28;20041;-85
2021/12/25 11:30:53;;;;;;;2.30;1.70;;;;;;;-145.06;0.00;60892.56;4814548;28;20030;-86
2021/12/25 11:33:32;;;;;;;3.53;1.73;;;;;;;-145.06;0.00;60892.56;4818142;28;20369;-84
2021/12/25 11:36:11;;;;;;;2.30;2.00;;;;;;;-145.06;0.00;60892.56;4818443;28;20488;-85
2021/12/25 11:38:52;;;;;;;4.10;1.87;;;;;;;-145.06;0.00;60892.56;4822480;28;20105;-85
2021/12/25 11:41:32;;;;;;;3.28;2.15;;;;;;;-145.06;0.00;60892.56;4815167;28;20022;-85
2021/12/25 11:44:38;;;;;;;2.40;2.08;;;;;;;-145.06;0.00;60892.56;4821587;28;20441;-85
2021/12/25 11:47:51;;;;;;;2.60;2.00;;;;;;;-145.06;0.00;60892.56;4817757;28;20034;-85
2021/12/25 11:50:42;;;;;;;2.10;1.88;;;;;;;-145.06;0.00;60892.56;4801661;28;20437;-85
2021/12/25 11:53:41;;;;;;;3.53;2.30;;;;;;;-145.06;0.00;60892.56;4818763;28;20023;-85
2021/12/25 11:56:40;;;;;;;2.38;1.95;;;;;;;-145.06;0.00;60892.56;4809124;28;20027;-86
2021/12/25 11:59:19;;;;;;;2.30;2.00;;;;;;;-145.06;0.00;60892.56;4818590;28;20757;-85
2021/12/25 12:02:02;;;;;;;3.15;1.98;;;;;;;-145.06;0.00;60892.56;4815607;28;20034;-86
2021/12/25 12:04:42;;;;;;;1.80;1.55;;;;;;;-145.06;0.00;60892.56;4819954;28;20377;-86
2021/12/25 12:07:24;;;;;;;2.28;1.80;;;;;;;-145.06;0.00;60892.56;4817342;28;20034;-85
2021/12/25 12:10:04;;;;;;;2.03;1.77;;;;;;;-145.06;0.00;60892.56;4817135;28;20057;-86
2021/12/25 12:12:47;;;;;;;1.92;1.70;;;;;;;-145.06;0.00;60892.56;4817260;28;20061;-85
2021/12/25 12:15:26;;;;;;;2.15;1.55;;;;;;;-145.06;0.00;60892.56;4820489;28;20472;-85
2021/12/25 12:18:23;;;;;;;2.07;1.60;;;;;;;-145.06;0.00;60892.56;4812614;28;20373;-86
2021/12/25 12:21:18;;;;;;;2.60;1.80;;;;;;;-145.06;0.00;60892.56;4834216;28;20355;-85
2021/12/25 12:24:22;;;;;;;2.30;1.95;;;;;;;-145.06;0.00;60892.56;4816622;28;20025;-86
2021/12/25 12:26:56;;;;;;;2.63;1.83;;;;;;;-145.06;0.00;60892.56;4817873;28;20034;-87
2021/12/25 12:29:38;;;;;;;1.70;1.33;;;;;;;-145.06;0.00;60892.56;4815882;28;20037;-85
2021/12/25 12:32:19;;;;;;;2.13;1.70;;;;;;;-145.06;0.00;60892.56;4818442;28;20031;-86
2021/12/25 12:34:59;;;;;;;1.95;1.60;;;;;;;-145.06;0.00;60892.56;4805081;28;20069;-86
2021/12/25 12:37:40;;;;;;;1.90;1.58;;;;;;;-145.06;0.00;60892.56;4804585;28;20026;-87
2021/12/25 12:40:25;;;;;;;1.92;1.63;;;;;;;-145.06;0.00;60892.56;4822981;28;20034;-86
2021/12/25 12:43:03;;;;;;;2.47;1.63;;;;;;;-145.06;0.00;60892.56;4811310;28;20066;-86
2021/12/25 12:45:52;;;;;;;1.90;1.40;;;;;;;-145.06;0.00;60892.56;4816735;28;20061;-86
2021/12/25 12:48:31;;;;;;;1.52;1.30;;;;;;;-145.06;0.00;60892.56;4812886;28;20026;-87
2021/12/25 12:51:18;;;;;;;1.30;1.20;;;;;;;-145.06;0.00;60892.56;4828157;28;20023;-86
2021/12/25 12:54:00;;;;;;;1.42;1.33;;;;;;;-145.06;0.00;60892.56;4814463;28;20520;-86
2021/12/25 12:57:02;;;;;;;1.70;1.40;;;;;;;-145.06;0.00;60892.56;4817114;28;20480;-86
2021/12/25 12:59:46;;;;;;;1.33;1.10;;;;;;;-145.06;0.00;60892.56;4813470;28;20026;-85
2021/12/25 13:02:29;;;;;;;1.40;1.27;;;;;;;-145.06;0.00;60892.56;4809669;28;20030;-86
2021/12/25 13:05:09;;;;;;;1.17;1.08;;;;;;;-145.06;0.00;60892.56;4808357;28;20022;-86
2021/12/25 13:07:50;;;;;;;1.38;1.00;;;;;;;-145.06;0.00;60892.56;4817455;28;20022;-85
2021/12/25 13:13:11;;;;;;;1.30;1.20;;;;;;;-145.06;0.00;60892.56;4818808;28;20389;-86
2021/12/25 13:16:00;;;;;;;1.20;1.10;;;;;;;-145.06;0.00;60892.56;4820690;28;20745;-85
2021/12/25 13:18:43;;;;;;;1.50;1.30;;;;;;;-145.06;0.00;60892.56;4821569;28;20033;-86
2021/12/25 13:21:25;;;;;;;1.10;1.00;;;;;;;-145.06;0.00;60892.56;4819954;28;20034;-86
2021/12/25 13:24:07;;;;;;;1.10;1.00;;;;;;;-145.06;0.00;60892.56;4822089;28;20535;-85
2021/12/25 13:26:50;;;;;;;1.35;1.25;;;;;;;-145.06;0.00;60892.56;4820652;28;20030;-86
2021/12/25 13:29:31;;;;;;;1.20;0.90;;;;;;;-145.06;0.00;60892.56;4824797;28;20539;-86
2021/12/25 13:32:11;;;;;;;1.45;1.20;;;;;;;-145.06;0.00;60892.56;4820479;28;20571;-86
2021/12/25 13:34:50;;;;;;;1.65;1.17;;;;;;;-145.06;0.00;60892.56;4815693;28;20549;-85
2021/12/25 13:37:29;;;;;;;1.30;1.20;;;;;;;-145.06;0.00;60892.56;4815260;28;20034;-86
2021/12/25 13:40:14;;;;;;;1.40;1.27;;;;;;;-145.06;0.00;60892.56;4820244;28;20121;-85
2021/12/25 13:42:54;;;;;;;1.65;1.27;;;;;;;-145.06;0.00;60892.56;4820637;28;20042;-85
2021/12/25 13:45:33;;;;;;;1.88;1.27;;;;;;;-145.06;0.00;60892.56;4819963;28;20105;-85